sensor_id;sensor_type;location;lat;lon;timestamp;temperature;humidity
72320;SHT30;60269;52.502;16.732;2023-10-09T00:01:33;2.85;99.99
72320;SHT30;60269;52.502;16.732;2023-10-09T00:05:05;2.68;99.99
72320;SHT30;60269;52.502;16.732;2023-10-09T00:08:42;2.61;99.99
72320;SHT30;60269;52.502;16.732;2023-10-09T00:12:21;2.61;99.99
72320;SHT30;60269;52.502;16.732;2023-10-09T00:16:05;2.75;99.99
72320;SHT30;60269;52.502;16.732;2023-10-09T00:19:46;2.86;99.99
72320;SHT30;60269;52.502;16.732;2023-10-09T00:23:19;2.81;99.99
72320;SHT30;60269;52.502;16.732;2023-10-09T00:26:54;2.82;99.99
72320;SHT30;60269;52.502;16.732;2023-10-09T00:30:47;2.93;99.99
72320;SHT30;60269;52.502;16.732;2023-10-09T00:34:19;3.04;99.99
72320;SHT30;60269;52.502;16.732;2023-10-09T00:37:51;3.16;99.99
72320;SHT30;60269;52.502;16.732;2023-10-09T00:41:28;3.26;99.99
72320;SHT30;60269;52.502;16.732;2023-10-09T00:45:01;3.20;99.99
72320;SHT30;60269;52.502;16.732;2023-10-09T00:48:36;3.17;99.99
72320;SHT30;60269;52.502;16.732;2023-10-09T00:52:12;3.17;99.99
72320;SHT30;60269;52.502;16.732;2023-10-09T00:55:54;3.16;99.97
72320;SHT30;60269;52.502;16.732;2023-10-09T00:59:28;3.19;99.58
72320;SHT30;60269;52.502;16.732;2023-10-09T01:03:01;3.28;99.62
72320;SHT30;60269;52.502;16.732;2023-10-09T01:06:54;3.44;99.24
72320;SHT30;60269;52.502;16.732;2023-10-09T01:10:46;3.54;98.89
72320;SHT30;60269;52.502;16.732;2023-10-09T01:14:23;3.64;98.03
72320;SHT30;60269;52.502;16.732;2023-10-09T01:17:56;3.78;97.73
72320;SHT30;60269;52.502;16.732;2023-10-09T01:21:31;3.85;96.88
72320;SHT30;60269;52.502;16.732;2023-10-09T01:25:03;3.99;96.57
72320;SHT30;60269;52.502;16.732;2023-10-09T01:28:38;4.13;95.81
72320;SHT30;60269;52.502;16.732;2023-10-09T01:32:10;4.26;95.65
72320;SHT30;60269;52.502;16.732;2023-10-09T01:35:48;4.33;95.03
72320;SHT30;60269;52.502;16.732;2023-10-09T01:39:22;4.47;93.87
72320;SHT30;60269;52.502;16.732;2023-10-09T01:43:14;4.54;93.06
72320;SHT30;60269;52.502;16.732;2023-10-09T01:46:50;4.53;93.00
72320;SHT30;60269;52.502;16.732;2023-10-09T01:50:24;4.43;94.21
72320;SHT30;60269;52.502;16.732;2023-10-09T01:54:03;4.44;93.59
72320;SHT30;60269;52.502;16.732;2023-10-09T01:57:35;4.48;92.90
72320;SHT30;60269;52.502;16.732;2023-10-09T02:01:11;4.47;92.07
72320;SHT30;60269;52.502;16.732;2023-10-09T02:04:44;4.56;92.26
72320;SHT30;60269;52.502;16.732;2023-10-09T02:08:19;4.60;92.20
72320;SHT30;60269;52.502;16.732;2023-10-09T02:11:59;4.60;93.46
72320;SHT30;60269;52.502;16.732;2023-10-09T02:15:34;4.57;93.45
72320;SHT30;60269;52.502;16.732;2023-10-09T02:19:16;4.61;94.23
72320;SHT30;60269;52.502;16.732;2023-10-09T02:23:06;4.65;94.51
72320;SHT30;60269;52.502;16.732;2023-10-09T02:26:44;4.61;94.80
72320;SHT30;60269;52.502;16.732;2023-10-09T02:30:25;4.67;95.31
72320;SHT30;60269;52.502;16.732;2023-10-09T02:34:01;4.64;95.50
72320;SHT30;60269;52.502;16.732;2023-10-09T02:37:37;4.65;95.68
72320;SHT30;60269;52.502;16.732;2023-10-09T02:41:09;4.71;95.87
72320;SHT30;60269;52.502;16.732;2023-10-09T02:44:44;4.71;95.08
72320;SHT30;60269;52.502;16.732;2023-10-09T02:48:22;4.81;94.12
72320;SHT30;60269;52.502;16.732;2023-10-09T02:51:59;4.87;93.27
72320;SHT30;60269;52.502;16.732;2023-10-09T02:55:32;4.92;93.06
72320;SHT30;60269;52.502;16.732;2023-10-09T02:59:10;4.96;93.04
72320;SHT30;60269;52.502;16.732;2023-10-09T03:02:44;5.00;92.62
72320;SHT30;60269;52.502;16.732;2023-10-09T03:06:22;5.00;92.68
72320;SHT30;60269;52.502;16.732;2023-10-09T03:10:00;5.08;92.52
72320;SHT30;60269;52.502;16.732;2023-10-09T03:13:32;5.18;92.71
72320;SHT30;60269;52.502;16.732;2023-10-09T03:17:05;5.18;92.89
72320;SHT30;60269;52.502;16.732;2023-10-09T03:20:42;5.27;91.99
72320;SHT30;60269;52.502;16.732;2023-10-09T03:24:16;5.33;92.18
72320;SHT30;60269;52.502;16.732;2023-10-09T03:27:51;5.36;91.72
72320;SHT30;60269;52.502;16.732;2023-10-09T03:31:24;5.40;91.52
72320;SHT30;60269;52.502;16.732;2023-10-09T03:34:57;5.47;91.94
72320;SHT30;60269;52.502;16.732;2023-10-09T03:38:31;5.54;91.61
72320;SHT30;60269;52.502;16.732;2023-10-09T03:42:06;5.56;91.45
72320;SHT30;60269;52.502;16.732;2023-10-09T03:45:44;5.60;91.23
72320;SHT30;60269;52.502;16.732;2023-10-09T03:49:26;5.57;91.23
72320;SHT30;60269;52.502;16.732;2023-10-09T03:52:58;5.61;90.90
72320;SHT30;60269;52.502;16.732;2023-10-09T03:56:30;5.71;90.21
72320;SHT30;60269;52.502;16.732;2023-10-09T04:00:03;5.71;89.93
72320;SHT30;60269;52.502;16.732;2023-10-09T04:03:56;5.87;89.59
72320;SHT30;60269;52.502;16.732;2023-10-09T04:07:32;5.93;89.23
72320;SHT30;60269;52.502;16.732;2023-10-09T04:11:05;6.05;88.04
72320;SHT30;60269;52.502;16.732;2023-10-09T04:14:48;6.08;88.02
72320;SHT30;60269;52.502;16.732;2023-10-09T04:18:30;6.08;87.61
72320;SHT30;60269;52.502;16.732;2023-10-09T04:22:06;6.14;87.00
72320;SHT30;60269;52.502;16.732;2023-10-09T04:25:40;6.21;87.91
72320;SHT30;60269;52.502;16.732;2023-10-09T04:29:15;6.26;87.83
72320;SHT30;60269;52.502;16.732;2023-10-09T04:32:58;6.29;87.94
72320;SHT30;60269;52.502;16.732;2023-10-09T04:36:36;6.33;87.57
72320;SHT30;60269;52.502;16.732;2023-10-09T04:40:18;6.29;87.67
72320;SHT30;60269;52.502;16.732;2023-10-09T04:44:10;6.37;87.89
72320;SHT30;60269;52.502;16.732;2023-10-09T04:47:52;6.46;88.18
72320;SHT30;60269;52.502;16.732;2023-10-09T04:51:30;6.40;88.17
72320;SHT30;60269;52.502;16.732;2023-10-09T04:55:08;6.39;89.03
72320;SHT30;60269;52.502;16.732;2023-10-09T04:58:43;6.32;90.18
72320;SHT30;60269;52.502;16.732;2023-10-09T05:02:17;6.26;90.59
72320;SHT30;60269;52.502;16.732;2023-10-09T05:05:55;6.26;91.32
72320;SHT30;60269;52.502;16.732;2023-10-09T05:09:30;6.25;91.54
72320;SHT30;60269;52.502;16.732;2023-10-09T05:13:23;6.26;92.39
72320;SHT30;60269;52.502;16.732;2023-10-09T05:17:14;6.19;93.21
72320;SHT30;60269;52.502;16.732;2023-10-09T05:20:49;6.22;93.81
72320;SHT30;60269;52.502;16.732;2023-10-09T05:24:28;6.21;94.38
72320;SHT30;60269;52.502;16.732;2023-10-09T05:28:14;6.26;94.23
72320;SHT30;60269;52.502;16.732;2023-10-09T05:32:20;6.26;94.69
72320;SHT30;60269;52.502;16.732;2023-10-09T05:36:03;6.25;95.22
72320;SHT30;60269;52.502;16.732;2023-10-09T05:39:55;6.28;95.24
72320;SHT30;60269;52.502;16.732;2023-10-09T05:43:33;6.26;95.72
72320;SHT30;60269;52.502;16.732;2023-10-09T05:47:24;6.28;95.70
72320;SHT30;60269;52.502;16.732;2023-10-09T05:51:03;6.26;95.87
72320;SHT30;60269;52.502;16.732;2023-10-09T05:54:44;6.33;96.01
72320;SHT30;60269;52.502;16.732;2023-10-09T05:58:35;6.36;95.85
72320;SHT30;60269;52.502;16.732;2023-10-09T06:02:26;6.42;95.98
72320;SHT30;60269;52.502;16.732;2023-10-09T06:06:32;6.40;96.29
72320;SHT30;60269;52.502;16.732;2023-10-09T06:10:05;6.50;95.71
72320;SHT30;60269;52.502;16.732;2023-10-09T06:13:50;6.52;96.05
72320;SHT30;60269;52.502;16.732;2023-10-09T06:17:34;6.56;96.08
72320;SHT30;60269;52.502;16.732;2023-10-09T06:21:15;6.43;96.89
72320;SHT30;60269;52.502;16.732;2023-10-09T06:25:11;6.44;97.17
72320;SHT30;60269;52.502;16.732;2023-10-09T06:28:44;6.52;97.51
72320;SHT30;60269;52.502;16.732;2023-10-09T06:32:21;6.63;97.58
72320;SHT30;60269;52.502;16.732;2023-10-09T06:36:02;6.67;98.01
72320;SHT30;60269;52.502;16.732;2023-10-09T06:39:40;6.84;97.76
72320;SHT30;60269;52.502;16.732;2023-10-09T06:43:41;7.09;95.96
72320;SHT30;60269;52.502;16.732;2023-10-09T06:47:19;7.28;94.92
72320;SHT30;60269;52.502;16.732;2023-10-09T06:51:06;7.39;93.80
72320;SHT30;60269;52.502;16.732;2023-10-09T06:54:57;7.49;93.12
72320;SHT30;60269;52.502;16.732;2023-10-09T06:58:41;7.67;93.73
72320;SHT30;60269;52.502;16.732;2023-10-09T07:02:19;7.84;93.99
72320;SHT30;60269;52.502;16.732;2023-10-09T07:06:07;8.04;92.72
72320;SHT30;60269;52.502;16.732;2023-10-09T07:09:58;7.97;91.64
72320;SHT30;60269;52.502;16.732;2023-10-09T07:13:49;8.14;91.79
72320;SHT30;60269;52.502;16.732;2023-10-09T07:17:27;8.24;92.01
72320;SHT30;60269;52.502;16.732;2023-10-09T07:21:06;8.32;91.70
72320;SHT30;60269;52.502;16.732;2023-10-09T07:24:43;8.28;90.94
72320;SHT30;60269;52.502;16.732;2023-10-09T07:28:16;8.22;91.07
72320;SHT30;60269;52.502;16.732;2023-10-09T07:32:00;8.52;91.73
72320;SHT30;60269;52.502;16.732;2023-10-09T07:35:46;8.81;90.10
72320;SHT30;60269;52.502;16.732;2023-10-09T07:39:18;9.10;88.61
72320;SHT30;60269;52.502;16.732;2023-10-09T07:42:54;9.28;89.23
72320;SHT30;60269;52.502;16.732;2023-10-09T07:46:36;9.51;87.67
72320;SHT30;60269;52.502;16.732;2023-10-09T07:50:45;9.69;84.84
72320;SHT30;60269;52.502;16.732;2023-10-09T07:54:29;9.62;85.30
72320;SHT30;60269;52.502;16.732;2023-10-09T07:58:19;9.85;86.19
72320;SHT30;60269;52.502;16.732;2023-10-09T08:01:56;9.97;85.31
72320;SHT30;60269;52.502;16.732;2023-10-09T08:05:34;10.16;86.33
72320;SHT30;60269;52.502;16.732;2023-10-09T08:09:15;10.47;85.68
72320;SHT30;60269;52.502;16.732;2023-10-09T08:12:54;10.78;84.10
72320;SHT30;60269;52.502;16.732;2023-10-09T08:16:29;10.96;82.93
72320;SHT30;60269;52.502;16.732;2023-10-09T08:20:10;10.67;79.80
72320;SHT30;60269;52.502;16.732;2023-10-09T08:23:49;10.60;80.69
72320;SHT30;60269;52.502;16.732;2023-10-09T08:31:19;10.48;81.68
72320;SHT30;60269;52.502;16.732;2023-10-09T08:34:51;10.25;81.54
72320;SHT30;60269;52.502;16.732;2023-10-09T08:38:32;10.33;83.56
72320;SHT30;60269;52.502;16.732;2023-10-09T08:42:10;10.58;82.51
72320;SHT30;60269;52.502;16.732;2023-10-09T08:45:47;10.75;80.04
72320;SHT30;60269;52.502;16.732;2023-10-09T08:49:20;11.16;77.45
72320;SHT30;60269;52.502;16.732;2023-10-09T08:52:54;11.61;77.01
72320;SHT30;60269;52.502;16.732;2023-10-09T08:56:27;12.12;75.69
72320;SHT30;60269;52.502;16.732;2023-10-09T08:59:59;12.98;74.10
72320;SHT30;60269;52.502;16.732;2023-10-09T09:03:39;13.76;74.84
72320;SHT30;60269;52.502;16.732;2023-10-09T09:07:26;14.16;70.91
72320;SHT30;60269;52.502;16.732;2023-10-09T09:11:10;14.83;68.12
72320;SHT30;60269;52.502;16.732;2023-10-09T09:14:55;15.58;65.17
72320;SHT30;60269;52.502;16.732;2023-10-09T09:18:27;15.40;64.15
72320;SHT30;60269;52.502;16.732;2023-10-09T09:22:03;15.65;64.22
72320;SHT30;60269;52.502;16.732;2023-10-09T09:25:46;15.46;64.11
72320;SHT30;60269;52.502;16.732;2023-10-09T09:33:25;15.16;64.05
72320;SHT30;60269;52.502;16.732;2023-10-09T09:37:19;15.94;64.78
72320;SHT30;60269;52.502;16.732;2023-10-09T09:40:52;16.43;60.45
72320;SHT30;60269;52.502;16.732;2023-10-09T09:44:26;16.65;60.45
72320;SHT30;60269;52.502;16.732;2023-10-09T09:48:05;16.88;59.33
72320;SHT30;60269;52.502;16.732;2023-10-09T09:51:38;16.84;59.11
72320;SHT30;60269;52.502;16.732;2023-10-09T09:55:14;15.20;56.91
72320;SHT30;60269;52.502;16.732;2023-10-09T09:58:50;14.55;60.75
72320;SHT30;60269;52.502;16.732;2023-10-09T10:02:36;14.24;59.67
72320;SHT30;60269;52.502;16.732;2023-10-09T10:06:11;14.40;63.01
72320;SHT30;60269;52.502;16.732;2023-10-09T10:09:44;14.57;60.35
72320;SHT30;60269;52.502;16.732;2023-10-09T10:13:18;14.95;59.65
72320;SHT30;60269;52.502;16.732;2023-10-09T10:24:45;14.57;61.79
72320;SHT30;60269;52.502;16.732;2023-10-09T10:28:26;14.17;64.23
72320;SHT30;60269;52.502;16.732;2023-10-09T10:32:17;13.87;65.44
72320;SHT30;60269;52.502;16.732;2023-10-09T10:35:52;13.41;67.29
72320;SHT30;60269;52.502;16.732;2023-10-09T10:39:25;13.24;67.37
72320;SHT30;60269;52.502;16.732;2023-10-09T10:43:16;13.42;66.75
72320;SHT30;60269;52.502;16.732;2023-10-09T10:47:12;13.67;66.40
72320;SHT30;60269;52.502;16.732;2023-10-09T10:50:57;13.45;65.17
72320;SHT30;60269;52.502;16.732;2023-10-09T10:54:29;13.45;65.56
72320;SHT30;60269;52.502;16.732;2023-10-09T10:58:15;13.28;66.65
72320;SHT30;60269;52.502;16.732;2023-10-09T11:01:55;13.08;66.01
72320;SHT30;60269;52.502;16.732;2023-10-09T11:05:30;13.03;67.30
72320;SHT30;60269;52.502;16.732;2023-10-09T11:09:10;13.16;67.42
72320;SHT30;60269;52.502;16.732;2023-10-09T11:13:24;13.52;66.59
72320;SHT30;60269;52.502;16.732;2023-10-09T11:17:02;13.53;64.71
72320;SHT30;60269;52.502;16.732;2023-10-09T11:20:57;13.76;64.64
72320;SHT30;60269;52.502;16.732;2023-10-09T11:24:36;13.96;64.47
72320;SHT30;60269;52.502;16.732;2023-10-09T11:28:18;14.22;63.19
72320;SHT30;60269;52.502;16.732;2023-10-09T11:32:19;14.17;63.86
72320;SHT30;60269;52.502;16.732;2023-10-09T11:35:55;13.67;63.42
72320;SHT30;60269;52.502;16.732;2023-10-09T11:39:31;13.31;63.86
72320;SHT30;60269;52.502;16.732;2023-10-09T11:43:04;12.86;64.03
72320;SHT30;60269;52.502;16.732;2023-10-09T11:46:57;13.01;65.51
72320;SHT30;60269;52.502;16.732;2023-10-09T11:54:29;13.25;63.22
72320;SHT30;60269;52.502;16.732;2023-10-09T11:58:03;13.21;63.44
72320;SHT30;60269;52.502;16.732;2023-10-09T12:01:36;12.40;66.61
72320;SHT30;60269;52.502;16.732;2023-10-09T12:05:10;12.02;66.63
72320;SHT30;60269;52.502;16.732;2023-10-09T12:08:49;11.98;66.47
72320;SHT30;60269;52.502;16.732;2023-10-09T12:12:21;13.19;64.54
72320;SHT30;60269;52.502;16.732;2023-10-09T12:15:57;13.31;64.82
72320;SHT30;60269;52.502;16.732;2023-10-09T12:19:29;13.66;63.64
72320;SHT30;60269;52.502;16.732;2023-10-09T12:23:02;13.46;64.35
72320;SHT30;60269;52.502;16.732;2023-10-09T12:26:38;13.32;64.72
72320;SHT30;60269;52.502;16.732;2023-10-09T12:30:12;12.91;67.40
72320;SHT30;60269;52.502;16.732;2023-10-09T12:33:45;12.64;67.98
72320;SHT30;60269;52.502;16.732;2023-10-09T12:37:18;12.77;67.63
72320;SHT30;60269;52.502;16.732;2023-10-09T12:40:52;12.60;66.99
72320;SHT30;60269;52.502;16.732;2023-10-09T12:44:25;12.83;67.57
72320;SHT30;60269;52.502;16.732;2023-10-09T12:47:59;12.05;68.92
72320;SHT30;60269;52.502;16.732;2023-10-09T12:51:31;11.53;70.60
72320;SHT30;60269;52.502;16.732;2023-10-09T12:55:03;11.43;71.93
72320;SHT30;60269;52.502;16.732;2023-10-09T12:58:40;11.09;71.54
72320;SHT30;60269;52.502;16.732;2023-10-09T13:02:25;10.93;72.24
72320;SHT30;60269;52.502;16.732;2023-10-09T13:06:03;10.89;72.71
72320;SHT30;60269;52.502;16.732;2023-10-09T13:09:39;10.81;72.66
72320;SHT30;60269;52.502;16.732;2023-10-09T13:13:38;10.93;72.53
72320;SHT30;60269;52.502;16.732;2023-10-09T13:17:18;11.05;72.48
72320;SHT30;60269;52.502;16.732;2023-10-09T13:20:52;10.95;72.51
72320;SHT30;60269;52.502;16.732;2023-10-09T13:24:24;10.91;71.94
72320;SHT30;60269;52.502;16.732;2023-10-09T13:28:02;10.86;71.87
72320;SHT30;60269;52.502;16.732;2023-10-09T13:31:37;10.86;72.11
72320;SHT30;60269;52.502;16.732;2023-10-09T13:35:11;10.82;72.36
72320;SHT30;60269;52.502;16.732;2023-10-09T13:38:46;10.91;73.57
72320;SHT30;60269;52.502;16.732;2023-10-09T13:42:18;10.91;73.50
72320;SHT30;60269;52.502;16.732;2023-10-09T13:45:50;10.98;73.26
72320;SHT30;60269;52.502;16.732;2023-10-09T13:49:22;10.81;73.87
72320;SHT30;60269;52.502;16.732;2023-10-09T13:52:55;10.65;74.97
72320;SHT30;60269;52.502;16.732;2023-10-09T13:56:28;10.71;75.63
72320;SHT30;60269;52.502;16.732;2023-10-09T13:59:59;10.72;75.32
72320;SHT30;60269;52.502;16.732;2023-10-09T14:03:32;10.68;76.03
72320;SHT30;60269;52.502;16.732;2023-10-09T14:07:04;10.62;76.45
72320;SHT30;60269;52.502;16.732;2023-10-09T14:10:38;10.55;76.54
72320;SHT30;60269;52.502;16.732;2023-10-09T14:14:10;10.47;76.78
72320;SHT30;60269;52.502;16.732;2023-10-09T14:17:43;10.43;76.40
72320;SHT30;60269;52.502;16.732;2023-10-09T14:21:18;10.40;77.18
72320;SHT30;60269;52.502;16.732;2023-10-09T14:24:51;10.29;76.87
72320;SHT30;60269;52.502;16.732;2023-10-09T14:28:31;10.34;77.69
72320;SHT30;60269;52.502;16.732;2023-10-09T14:32:03;10.21;77.28
72320;SHT30;60269;52.502;16.732;2023-10-09T14:35:35;10.25;77.32
72320;SHT30;60269;52.502;16.732;2023-10-09T14:39:07;10.13;76.91
72320;SHT30;60269;52.502;16.732;2023-10-09T14:42:44;10.14;77.86
72320;SHT30;60269;52.502;16.732;2023-10-09T14:46:17;10.03;76.56
72320;SHT30;60269;52.502;16.732;2023-10-09T14:49:55;10.07;76.84
72320;SHT30;60269;52.502;16.732;2023-10-09T14:53:33;10.14;76.78
72320;SHT30;60269;52.502;16.732;2023-10-09T14:57:06;10.05;77.06
72320;SHT30;60269;52.502;16.732;2023-10-09T15:00:38;10.10;76.59
72320;SHT30;60269;52.502;16.732;2023-10-09T15:04:10;9.97;77.37
72320;SHT30;60269;52.502;16.732;2023-10-09T15:07:47;9.87;78.23
72320;SHT30;60269;52.502;16.732;2023-10-09T15:11:23;9.81;78.80
72320;SHT30;60269;52.502;16.732;2023-10-09T15:14:57;9.76;78.88
72320;SHT30;60269;52.502;16.732;2023-10-09T15:18:29;9.71;78.96
72320;SHT30;60269;52.502;16.732;2023-10-09T15:22:05;9.61;79.58
72320;SHT30;60269;52.502;16.732;2023-10-09T15:25:41;9.54;79.51
72320;SHT30;60269;52.502;16.732;2023-10-09T15:29:17;9.51;80.36
72320;SHT30;60269;52.502;16.732;2023-10-09T15:32:51;9.49;80.45
72320;SHT30;60269;52.502;16.732;2023-10-09T15:36:23;9.49;80.45
72320;SHT30;60269;52.502;16.732;2023-10-09T15:40:00;9.42;80.62
72320;SHT30;60269;52.502;16.732;2023-10-09T15:43:35;9.38;80.97
72320;SHT30;60269;52.502;16.732;2023-10-09T15:47:08;9.42;81.10
72320;SHT30;60269;52.502;16.732;2023-10-09T15:50:45;9.32;81.79
72320;SHT30;60269;52.502;16.732;2023-10-09T15:54:20;9.32;81.94
72320;SHT30;60269;52.502;16.732;2023-10-09T15:57:54;9.35;83.16
72320;SHT30;60269;52.502;16.732;2023-10-09T16:01:27;9.32;83.67
72320;SHT30;60269;52.502;16.732;2023-10-09T16:04:59;9.37;83.75
72320;SHT30;60269;52.502;16.732;2023-10-09T16:08:31;9.38;83.99
72320;SHT30;60269;52.502;16.732;2023-10-09T16:12:06;9.30;83.44
72320;SHT30;60269;52.502;16.732;2023-10-09T16:15:41;9.27;83.98
72320;SHT30;60269;52.502;16.732;2023-10-09T16:19:15;9.28;84.34
72320;SHT30;60269;52.502;16.732;2023-10-09T16:22:48;9.24;84.10
72320;SHT30;60269;52.502;16.732;2023-10-09T16:26:21;9.18;83.36
72320;SHT30;60269;52.502;16.732;2023-10-09T16:29:56;9.10;84.17
72320;SHT30;60269;52.502;16.732;2023-10-09T16:33:29;9.06;84.70
72320;SHT30;60269;52.502;16.732;2023-10-09T16:37:01;9.01;85.18
72320;SHT30;60269;52.502;16.732;2023-10-09T16:40:33;8.91;85.40
72320;SHT30;60269;52.502;16.732;2023-10-09T16:44:05;8.86;85.65
72320;SHT30;60269;52.502;16.732;2023-10-09T16:47:49;9.03;85.16
72320;SHT30;60269;52.502;16.732;2023-10-09T16:51:23;8.93;85.46
72320;SHT30;60269;52.502;16.732;2023-10-09T16:54:56;8.80;85.64
72320;SHT30;60269;52.502;16.732;2023-10-09T16:58:33;8.75;86.30
72320;SHT30;60269;52.502;16.732;2023-10-09T17:02:05;8.77;86.71
72320;SHT30;60269;52.502;16.732;2023-10-09T17:05:39;9.04;86.69
72320;SHT30;60269;52.502;16.732;2023-10-09T17:09:36;8.96;86.19
72320;SHT30;60269;52.502;16.732;2023-10-09T17:13:12;8.94;85.20
72320;SHT30;60269;52.502;16.732;2023-10-09T17:16:45;8.94;84.58
72320;SHT30;60269;52.502;16.732;2023-10-09T17:20:19;9.07;83.90
72320;SHT30;60269;52.502;16.732;2023-10-09T17:23:53;9.01;84.23
72320;SHT30;60269;52.502;16.732;2023-10-09T17:27:25;9.01;85.07
72320;SHT30;60269;52.502;16.732;2023-10-09T17:31:01;9.01;85.50
72320;SHT30;60269;52.502;16.732;2023-10-09T17:34:34;9.03;86.05
72320;SHT30;60269;52.502;16.732;2023-10-09T17:38:08;9.01;86.45
72320;SHT30;60269;52.502;16.732;2023-10-09T17:41:41;8.91;86.69
72320;SHT30;60269;52.502;16.732;2023-10-09T17:45:13;8.91;86.73
72320;SHT30;60269;52.502;16.732;2023-10-09T17:48:53;8.84;87.25
72320;SHT30;60269;52.502;16.732;2023-10-09T17:52:25;8.81;87.61
72320;SHT30;60269;52.502;16.732;2023-10-09T17:55:58;8.72;87.65
72320;SHT30;60269;52.502;16.732;2023-10-09T17:59:31;8.60;88.33
72320;SHT30;60269;52.502;16.732;2023-10-09T18:03:04;8.52;88.62
72320;SHT30;60269;52.502;16.732;2023-10-09T18:06:37;8.45;89.11
72320;SHT30;60269;52.502;16.732;2023-10-09T18:10:11;8.38;89.08
72320;SHT30;60269;52.502;16.732;2023-10-09T18:13:47;8.27;89.67
72320;SHT30;60269;52.502;16.732;2023-10-09T18:17:20;8.02;90.75
72320;SHT30;60269;52.502;16.732;2023-10-09T18:20:54;8.04;91.25
72320;SHT30;60269;52.502;16.732;2023-10-09T18:24:28;8.04;91.42
72320;SHT30;60269;52.502;16.732;2023-10-09T18:28:00;7.91;91.81
72320;SHT30;60269;52.502;16.732;2023-10-09T18:31:32;7.84;92.10
72320;SHT30;60269;52.502;16.732;2023-10-09T18:35:04;7.83;92.27
72320;SHT30;60269;52.502;16.732;2023-10-09T18:38:37;7.91;91.97
72320;SHT30;60269;52.502;16.732;2023-10-09T18:42:10;7.90;91.93
72320;SHT30;60269;52.502;16.732;2023-10-09T18:45:42;7.86;92.16
72320;SHT30;60269;52.502;16.732;2023-10-09T18:49:15;7.63;93.56
72320;SHT30;60269;52.502;16.732;2023-10-09T18:52:48;7.65;93.88
72320;SHT30;60269;52.502;16.732;2023-10-09T18:56:25;7.60;94.68
72320;SHT30;60269;52.502;16.732;2023-10-09T18:59:57;7.56;95.47
72320;SHT30;60269;52.502;16.732;2023-10-09T19:03:29;7.48;95.86
72320;SHT30;60269;52.502;16.732;2023-10-09T19:07:02;7.48;95.85
72320;SHT30;60269;52.502;16.732;2023-10-09T19:10:34;7.46;96.19
72320;SHT30;60269;52.502;16.732;2023-10-09T19:14:06;7.42;96.34
72320;SHT30;60269;52.502;16.732;2023-10-09T19:17:40;7.43;96.35
72320;SHT30;60269;52.502;16.732;2023-10-09T19:21:13;7.42;96.61
72320;SHT30;60269;52.502;16.732;2023-10-09T19:24:46;7.31;96.92
72320;SHT30;60269;52.502;16.732;2023-10-09T19:28:18;7.18;97.05
72320;SHT30;60269;52.502;16.732;2023-10-09T19:31:52;7.07;97.49
72320;SHT30;60269;52.502;16.732;2023-10-09T19:35:25;7.33;96.80
72320;SHT30;60269;52.502;16.732;2023-10-09T19:38:57;7.50;96.63
72320;SHT30;60269;52.502;16.732;2023-10-09T19:42:31;7.56;96.61
72320;SHT30;60269;52.502;16.732;2023-10-09T19:46:04;7.59;96.19
72320;SHT30;60269;52.502;16.732;2023-10-09T19:49:36;7.52;96.09
72320;SHT30;60269;52.502;16.732;2023-10-09T19:53:11;7.45;95.96
72320;SHT30;60269;52.502;16.732;2023-10-09T19:56:44;7.32;95.97
72320;SHT30;60269;52.502;16.732;2023-10-09T20:00:17;7.21;96.16
72320;SHT30;60269;52.502;16.732;2023-10-09T20:03:55;7.05;96.35
72320;SHT30;60269;52.502;16.732;2023-10-09T20:07:27;7.08;96.15
72320;SHT30;60269;52.502;16.732;2023-10-09T20:11:09;6.72;97.20
72320;SHT30;60269;52.502;16.732;2023-10-09T20:14:45;6.49;98.32
72320;SHT30;60269;52.502;16.732;2023-10-09T20:18:17;6.30;98.01
72320;SHT30;60269;52.502;16.732;2023-10-09T20:21:51;6.05;98.52
72320;SHT30;60269;52.502;16.732;2023-10-09T20:25:26;6.04;99.76
72320;SHT30;60269;52.502;16.732;2023-10-09T20:29:00;6.09;99.99
72320;SHT30;60269;52.502;16.732;2023-10-09T20:32:31;6.30;99.99
72320;SHT30;60269;52.502;16.732;2023-10-09T20:36:08;6.29;99.99
72320;SHT30;60269;52.502;16.732;2023-10-09T20:39:43;6.22;99.99
72320;SHT30;60269;52.502;16.732;2023-10-09T20:43:15;6.18;99.99
72320;SHT30;60269;52.502;16.732;2023-10-09T20:46:47;6.12;99.99
72320;SHT30;60269;52.502;16.732;2023-10-09T20:50:21;6.09;99.99
72320;SHT30;60269;52.502;16.732;2023-10-09T20:53:53;6.21;99.99
72320;SHT30;60269;52.502;16.732;2023-10-09T20:57:26;6.32;99.99
72320;SHT30;60269;52.502;16.732;2023-10-09T21:00:58;6.53;99.99
72320;SHT30;60269;52.502;16.732;2023-10-09T21:04:30;6.53;99.99
72320;SHT30;60269;52.502;16.732;2023-10-09T21:08:02;6.32;99.99
72320;SHT30;60269;52.502;16.732;2023-10-09T21:11:35;6.11;99.99
72320;SHT30;60269;52.502;16.732;2023-10-09T21:15:10;6.12;99.99
72320;SHT30;60269;52.502;16.732;2023-10-09T21:18:45;6.08;99.99
72320;SHT30;60269;52.502;16.732;2023-10-09T21:22:18;5.95;99.99
72320;SHT30;60269;52.502;16.732;2023-10-09T21:25:50;5.74;99.99
72320;SHT30;60269;52.502;16.732;2023-10-09T21:29:23;5.51;99.99
72320;SHT30;60269;52.502;16.732;2023-10-09T21:32:56;5.35;99.99
72320;SHT30;60269;52.502;16.732;2023-10-09T21:36:28;4.98;99.99
72320;SHT30;60269;52.502;16.732;2023-10-09T21:40:00;4.65;99.99
72320;SHT30;60269;52.502;16.732;2023-10-09T21:43:34;4.37;99.99
72320;SHT30;60269;52.502;16.732;2023-10-09T21:47:06;4.39;99.99
72320;SHT30;60269;52.502;16.732;2023-10-09T21:50:41;4.56;99.99
72320;SHT30;60269;52.502;16.732;2023-10-09T21:54:13;4.62;99.99
72320;SHT30;60269;52.502;16.732;2023-10-09T21:57:48;4.53;99.99
72320;SHT30;60269;52.502;16.732;2023-10-09T22:01:20;4.41;99.99
72320;SHT30;60269;52.502;16.732;2023-10-09T22:04:55;4.36;99.99
72320;SHT30;60269;52.502;16.732;2023-10-09T22:08:28;4.26;99.99
72320;SHT30;60269;52.502;16.732;2023-10-09T22:12:02;4.21;99.99
72320;SHT30;60269;52.502;16.732;2023-10-09T22:15:34;4.23;99.99
72320;SHT30;60269;52.502;16.732;2023-10-09T22:19:07;4.34;99.99
72320;SHT30;60269;52.502;16.732;2023-10-09T22:22:47;4.37;99.99
72320;SHT30;60269;52.502;16.732;2023-10-09T22:26:19;4.37;99.99
72320;SHT30;60269;52.502;16.732;2023-10-09T22:29:54;4.23;99.99
72320;SHT30;60269;52.502;16.732;2023-10-09T22:33:26;4.36;99.99
72320;SHT30;60269;52.502;16.732;2023-10-09T22:37:09;4.36;99.99
72320;SHT30;60269;52.502;16.732;2023-10-09T22:40:47;4.23;99.99
72320;SHT30;60269;52.502;16.732;2023-10-09T22:44:26;4.21;99.99
72320;SHT30;60269;52.502;16.732;2023-10-09T22:48:04;4.19;99.99
72320;SHT30;60269;52.502;16.732;2023-10-09T22:51:36;4.03;99.99
72320;SHT30;60269;52.502;16.732;2023-10-09T22:55:13;3.82;99.99
72320;SHT30;60269;52.502;16.732;2023-10-09T22:58:48;3.65;99.99
72320;SHT30;60269;52.502;16.732;2023-10-09T23:02:23;3.47;99.99
72320;SHT30;60269;52.502;16.732;2023-10-09T23:06:15;3.52;99.99